F/V Oceanie — FVBW — position and weather

sailwx.info

Track history (hours):
 
Tides and Currents Weather Stations Pressure Air Temp Water Temp Dewpoint Dewpoint Depression Visibility Wind Speed Wind Dir Waves Ship Positions

F/V Oceanie

Last reported at 2016-Aug-26 18:20 UTC. Time now 2016-Aug-28 18:59 UTC.
Position N 47°44' W 003°22'.

Length 16 m.

Type: Fishing. MMSI: 228370000.

Date/timePositionNaut miles runAvg speedWind from/ knotsBaromVisibWave heightAir tempDewpointWater temp
2016-Aug-26 18:20N 47°44' W 003°22'0 0.0
2016-Aug-26 17:34N 47°44' W 003°22'0 0.0
2016-Aug-26 16:34N 47°44' W 003°22'7 6.8
2016-Aug-26 15:34N 47°40' W 003°30'9 8.9
2016-Aug-26 14:34N 47°36' W 003°42'9 8.5
2016-Aug-26 13:31N 47°32' W 003°54'5 4.8
2016-Aug-26 12:29N 47°29' W 004°00'4 4.1
2016-Aug-26 11:26N 47°31' W 004°06'2 2.2
2016-Aug-26 10:30N 47°33' W 004°05'1 1.5
2016-Aug-26 09:33N 47°31' W 004°04'3 3.3
2016-Aug-26 08:33N 47°31' W 004°09'2 2.2
2016-Aug-26 07:32N 47°33' W 004°11'4 4.1
2016-Aug-26 06:33N 47°32' W 004°05'8 4.1
2016-Aug-26 04:33N 47°32' W 003°53'4 4.4
2016-Aug-26 03:34N 47°34' W 003°47'7 7.4
2016-Aug-26 02:33N 47°37' W 003°37'7 7.4
2016-Aug-26 01:34N 47°40' W 003°28'5 5.0
2016-Aug-26 00:34N 47°44' W 003°22'2 1.9
2016-Aug-25 23:34N 47°42' W 003°22'9 8.6
2016-Aug-25 22:34N 47°33' W 003°25'9 8.8
2016-Aug-25 21:33N 47°25' W 003°27'8 8.4
2016-Aug-25 20:33N 47°16' W 003°30'6 5.7
2016-Aug-25 19:33N 47°11' W 003°30'4 4.2
2016-Aug-25 18:33N 47°07' W 003°29'1 1.0
2016-Aug-25 17:34N 47°08' W 003°29'4 4.5
2016-Aug-25 16:33N 47°03' W 003°29'3 2.8
2016-Aug-25 15:33N 47°01' W 003°27'4 3.8
2016-Aug-25 14:34N 46°60' W 003°33'2 2.1
2016-Aug-25 13:30N 47°02' W 003°35'2 2.2
2016-Aug-25 12:33N 47°00' W 003°33'2 1.9
2016-Aug-25 11:33N 47°02' W 003°34'2 2.0
2016-Aug-25 10:34N 47°02' W 003°31'2 2.0
2016-Aug-25 09:30N 46°60' W 003°32'3 2.7
2016-Aug-25 08:33N 47°02' W 003°34'3 2.9
2016-Aug-25 07:33N 46°60' W 003°31'6 1.8
2016-Aug-25 04:33N 47°05' W 003°32'5 4.6
2016-Aug-25 03:33N 47°10' W 003°31'9 9.3
2016-Aug-25 02:34N 47°19' W 003°29'9 9.2
2016-Aug-25 01:33N 47°28' W 003°26'9 9.5
2016-Aug-25 00:34N 47°37' W 003°23'7 6.8
2016-Aug-24 23:34N 47°44' W 003°22'7 6.6
2016-Aug-24 22:33N 47°37' W 003°24'9 9.0
2016-Aug-24 21:34N 47°28' W 003°27'9 9.0
2016-Aug-24 20:33N 47°20' W 003°29'8 7.7
2016-Aug-24 19:33N 47°12' W 003°31'4 4.0
2016-Aug-24 18:33N 47°08' W 003°29'5 4.5
2016-Aug-24 17:27N 47°03' W 003°29'2 2.6
2016-Aug-24 16:33N 47°02' W 003°32'2 2.3
2016-Aug-24 15:34N 46°60' W 003°31'3 2.5
2016-Aug-24 14:31N 47°01' W 003°34'3 3.5
2016-Aug-24 13:34N 46°59' W 003°30'3 2.8
2016-Aug-24 12:33N 47°01' W 003°27'4 4.0
2016-Aug-24 11:33N 47°02' W 003°32'3 2.6
2016-Aug-24 10:33N 46°59' W 003°33'2 2.5
2016-Aug-24 09:34N 47°01' W 003°31'4 3.8
2016-Aug-24 08:33N 47°00' W 003°26'4 3.8
2016-Aug-24 07:33N 46°57' W 003°24'4 4.0
2016-Aug-24 06:34N 47°01' W 003°25'8 4.1
2016-Aug-24 04:33N 47°09' W 003°24'6 6.2
2016-Aug-24 03:33N 47°15' W 003°24'9 8.7
2016-Aug-24 02:34N 47°24' W 003°23'9 8.9
2016-Aug-24 01:34N 47°33' W 003°23'9 9.0
2016-Aug-24 00:34N 47°42' W 003°22'1 0.8
2016-Aug-23 23:34N 47°42' W 003°22'9 9.1
2016-Aug-23 22:34N 47°33' W 003°23'9 8.9
2016-Aug-23 21:34N 47°24' W 003°24'9 8.6
2016-Aug-23 20:34N 47°16' W 003°24'6 6.0
2016-Aug-23 19:33N 47°10' W 003°24'4 4.1
2016-Aug-23 18:34N 47°06' W 003°25'4 4.3
2016-Aug-23 17:34N 47°02' W 003°25'4 3.6
2016-Aug-23 16:33N 46°59' W 003°28'4 4.3
2016-Aug-23 15:33N 47°00' W 003°34'4 4.1
2016-Aug-23 14:33N 47°01' W 003°40'1 0.5
2016-Aug-23 13:33N 47°00' W 003°40'4 4.3
2016-Aug-23 12:33N 47°02' W 003°34'4 4.0
2016-Aug-23 11:33N 46°59' W 003°30'3 2.6
2016-Aug-23 10:34N 47°01' W 003°27'3 3.0
2016-Aug-23 09:34N 47°01' W 003°31'3 3.0
2016-Aug-23 08:34N 47°01' W 003°27'3 2.8
2016-Aug-23 07:34N 46°60' W 003°31'2 2.3
2016-Aug-23 06:33N 47°01' W 003°28'3 3.5
2016-Aug-23 05:33N 46°59' W 003°24'2 2.2
2016-Aug-23 04:33N 47°01' W 003°25'4 4.0
2016-Aug-23 03:34N 47°05' W 003°25'4 3.9
2016-Aug-23 02:34N 47°09' W 003°24'6 5.9
2016-Aug-23 01:34N 47°14' W 003°24'9 8.8
2016-Aug-23 00:33N 47°23' W 003°24'9 9.3
2016-Aug-22 23:33N 47°32' W 003°23'9 9.3
2016-Aug-22 22:34N 47°42' W 003°22'1 0.9
2016-Aug-22 21:34N 47°43' W 003°22'8 8.2
2016-Aug-22 20:34N 47°35' W 003°26'5 4.7
2016-Aug-22 19:34N 47°31' W 003°30'4 4.2
2016-Aug-22 18:33N 47°27' W 003°28'1 1.2
2016-Aug-22 17:33N 47°27' W 003°30'3 2.7
2016-Aug-22 16:33N 47°30' W 003°31'4 4.4
2016-Aug-22 15:34N 47°25' W 003°30'3 3.1
2016-Aug-22 14:33N 47°23' W 003°27'4 3.5
2016-Aug-22 13:33N 47°26' W 003°29'3 3.3
2016-Aug-22 12:33N 47°29' W 003°32'4 4.2
2016-Aug-22 11:33N 47°25' W 003°33'4 3.6
2016-Aug-22 10:34N 47°22' W 003°29'3 3.2
2016-Aug-22 09:33N 47°24' W 003°32'4 3.7
2016-Aug-22 08:34N 47°28' W 003°32'3 3.0
2016-Aug-22 07:34N 47°27' W 003°28'2 1.9
2016-Aug-22 06:33N 47°28' W 003°30'3 2.6
2016-Aug-22 05:34N 47°26' W 003°28'4 4.2
2016-Aug-22 04:33N 47°30' W 003°30'4 4.0
2016-Aug-22 03:34N 47°34' W 003°27'8 8.0
2016-Aug-22 02:34N 47°41' W 003°22'  
2016-Aug-19 18:33N 47°42' W 003°22'8 7.5
2016-Aug-19 17:33N 47°35' W 003°25'7 6.5
2016-Aug-19 16:33N 47°29' W 003°31'4 3.9
2016-Aug-19 15:33N 47°26' W 003°28'3 3.4
2016-Aug-19 14:33N 47°29' W 003°31'3 3.4
2016-Aug-19 13:33N 47°26' W 003°28'3 3.2
2016-Aug-19 12:33N 47°28' W 003°31'3 3.2
2016-Aug-19 11:33N 47°26' W 003°28'2 2.4
2016-Aug-19 10:33N 47°28' W 003°30'1 1.2
2016-Aug-19 09:33N 47°29' W 003°29'3 3.2
2016-Aug-19 08:33N 47°26' W 003°29'3 3.4
2016-Aug-19 07:33N 47°29' W 003°31'4 3.7
2016-Aug-19 06:33N 47°25' W 003°28'4 4.0
2016-Aug-19 05:33N 47°29' W 003°31'2 2.4
2016-Aug-19 04:33N 47°27' W 003°29'3 2.8
2016-Aug-19 03:33N 47°29' W 003°31'3 3.4
2016-Aug-19 02:33N 47°27' W 003°28'2 1.7
2016-Aug-19 01:33N 47°28' W 003°30'4 4.1
2016-Aug-19 00:33N 47°32' W 003°30'9 8.7
2016-Aug-18 23:33N 47°39' W 003°23'5 4.9
2016-Aug-18 22:33N 47°44' W 003°22'5 5.3
2016-Aug-18 21:33N 47°39' W 003°23'8 7.8
2016-Aug-18 20:33N 47°33' W 003°31'4 4.0
2016-Aug-18 19:33N 47°29' W 003°29'3 3.0
2016-Aug-18 18:31N 47°26' W 003°30'3 3.6
2016-Aug-18 17:33N 47°29' W 003°31'4 3.9
2016-Aug-18 16:33N 47°25' W 003°34'0 0.2
2016-Aug-18 15:33N 47°26' W 003°34'4 3.6
2016-Aug-18 14:33N 47°22' W 003°31'3 2.9
2016-Aug-18 13:33N 47°21' W 003°28'2 1.6
2016-Aug-18 12:33N 47°21' W 003°30'2 1.6
2016-Aug-18 11:33N 47°20' W 003°28'1 1.4
2016-Aug-18 10:33N 47°21' W 003°28'2 2.1
2016-Aug-18 09:30N 47°23' W 003°30'2 1.7
2016-Aug-18 08:30N 47°24' W 003°28'2 2.2
2016-Aug-18 07:34N 47°22' W 003°28'2 2.0
2016-Aug-18 06:33N 47°24' W 003°30'2 1.7
2016-Aug-18 05:33N 47°24' W 003°27'2 2.2
2016-Aug-18 04:33N 47°22' W 003°29'3 3.2
2016-Aug-18 03:33N 47°25' W 003°29'4 4.3
2016-Aug-18 02:33N 47°29' W 003°31'2 2.4
2016-Aug-18 01:33N 47°27' W 003°29'1 1.0
2016-Aug-18 00:33N 47°27' W 003°30'3 2.7
2016-Aug-17 23:33N 47°30' W 003°29'4 4.0
2016-Aug-17 22:33N 47°26' W 003°29'4 4.1
2016-Aug-17 21:33N 47°22' W 003°28'5 4.2
2016-Aug-17 20:25N 47°18' W 003°23'1 0.7
2016-Aug-17 19:33N 47°18' W 003°23'2 2.0
2016-Aug-17 18:33N 47°17' W 003°20'0 0.3
2016-Aug-17 17:33N 47°17' W 003°20'1 1.3
2016-Aug-17 16:33N 47°18' W 003°22'6 6.0
2016-Aug-17 15:33N 47°21' W 003°29'4 4.0
2016-Aug-17 14:33N 47°24' W 003°33'1 0.8
2016-Aug-17 13:33N 47°25' W 003°33'3 3.5
2016-Aug-17 12:33N 47°29' W 003°32'6 6.3
2016-Aug-17 11:33N 47°33' W 003°26'9 8.7
2016-Aug-17 10:33N 47°42' W 003°22'2 0.2
2016-Aug-16 23:33N 47°44' W 003°22'8 8.2
2016-Aug-16 22:33N 47°36' W 003°24'9 9.0
2016-Aug-16 21:33N 47°27' W 003°26'9 9.3
2016-Aug-16 20:34N 47°18' W 003°28'4 3.6
2016-Aug-16 19:33N 47°16' W 003°33'4 3.7
2016-Aug-16 18:33N 47°14' W 003°38'  
Track history (hours):
 
Tides and Currents Weather Stations Pressure Air Temp Water Temp Dewpoint Dewpoint Depression Visibility Wind Speed Wind Dir Waves Ship Positions

F/V Oceanie

Last reported at 2016-Aug-26 18:20 UTC. Time now 2016-Aug-28 18:59 UTC.
Position N 47°44' W 003°22'.

Length 16 m.

Type: Fishing. MMSI: 228370000.

Date/timePositionNaut miles runAvg speedWind from/ knotsBaromVisibWave heightAir tempDewpointWater temp
2016-Aug-26 18:20N 47°44' W 003°22'0 0.0
2016-Aug-26 17:34N 47°44' W 003°22'0 0.0
2016-Aug-26 16:34N 47°44' W 003°22'7 6.8
2016-Aug-26 15:34N 47°40' W 003°30'9 8.9
2016-Aug-26 14:34N 47°36' W 003°42'9 8.5
2016-Aug-26 13:31N 47°32' W 003°54'5 4.8
2016-Aug-26 12:29N 47°29' W 004°00'4 4.1
2016-Aug-26 11:26N 47°31' W 004°06'2 2.2
2016-Aug-26 10:30N 47°33' W 004°05'1 1.5
2016-Aug-26 09:33N 47°31' W 004°04'3 3.3
2016-Aug-26 08:33N 47°31' W 004°09'2 2.2
2016-Aug-26 07:32N 47°33' W 004°11'4 4.1
2016-Aug-26 06:33N 47°32' W 004°05'8 4.1
2016-Aug-26 04:33N 47°32' W 003°53'4 4.4
2016-Aug-26 03:34N 47°34' W 003°47'7 7.4
2016-Aug-26 02:33N 47°37' W 003°37'7 7.4
2016-Aug-26 01:34N 47°40' W 003°28'5 5.0
2016-Aug-26 00:34N 47°44' W 003°22'2 1.9
2016-Aug-25 23:34N 47°42' W 003°22'9 8.6
2016-Aug-25 22:34N 47°33' W 003°25'9 8.8
2016-Aug-25 21:33N 47°25' W 003°27'8 8.4
2016-Aug-25 20:33N 47°16' W 003°30'6 5.7
2016-Aug-25 19:33N 47°11' W 003°30'4 4.2
2016-Aug-25 18:33N 47°07' W 003°29'1 1.0
2016-Aug-25 17:34N 47°08' W 003°29'4 4.5
2016-Aug-25 16:33N 47°03' W 003°29'3 2.8
2016-Aug-25 15:33N 47°01' W 003°27'4 3.8
2016-Aug-25 14:34N 46°60' W 003°33'2 2.1
2016-Aug-25 13:30N 47°02' W 003°35'2 2.2
2016-Aug-25 12:33N 47°00' W 003°33'2 1.9
2016-Aug-25 11:33N 47°02' W 003°34'2 2.0
2016-Aug-25 10:34N 47°02' W 003°31'2 2.0
2016-Aug-25 09:30N 46°60' W 003°32'3 2.7
2016-Aug-25 08:33N 47°02' W 003°34'3 2.9
2016-Aug-25 07:33N 46°60' W 003°31'6 1.8
2016-Aug-25 04:33N 47°05' W 003°32'5 4.6
2016-Aug-25 03:33N 47°10' W 003°31'9 9.3
2016-Aug-25 02:34N 47°19' W 003°29'9 9.2
2016-Aug-25 01:33N 47°28' W 003°26'9 9.5
2016-Aug-25 00:34N 47°37' W 003°23'7 6.8
2016-Aug-24 23:34N 47°44' W 003°22'7 6.6
2016-Aug-24 22:33N 47°37' W 003°24'9 9.0
2016-Aug-24 21:34N 47°28' W 003°27'9 9.0
2016-Aug-24 20:33N 47°20' W 003°29'8 7.7
2016-Aug-24 19:33N 47°12' W 003°31'4 4.0
2016-Aug-24 18:33N 47°08' W 003°29'5 4.5
2016-Aug-24 17:27N 47°03' W 003°29'2 2.6
2016-Aug-24 16:33N 47°02' W 003°32'2 2.3
2016-Aug-24 15:34N 46°60' W 003°31'3 2.5
2016-Aug-24 14:31N 47°01' W 003°34'3 3.5
2016-Aug-24 13:34N 46°59' W 003°30'3 2.8
2016-Aug-24 12:33N 47°01' W 003°27'4 4.0
2016-Aug-24 11:33N 47°02' W 003°32'3 2.6
2016-Aug-24 10:33N 46°59' W 003°33'2 2.5
2016-Aug-24 09:34N 47°01' W 003°31'4 3.8
2016-Aug-24 08:33N 47°00' W 003°26'4 3.8
2016-Aug-24 07:33N 46°57' W 003°24'4 4.0
2016-Aug-24 06:34N 47°01' W 003°25'8 4.1
2016-Aug-24 04:33N 47°09' W 003°24'6 6.2
2016-Aug-24 03:33N 47°15' W 003°24'9 8.7
2016-Aug-24 02:34N 47°24' W 003°23'9 8.9
2016-Aug-24 01:34N 47°33' W 003°23'9 9.0
2016-Aug-24 00:34N 47°42' W 003°22'1 0.8
2016-Aug-23 23:34N 47°42' W 003°22'9 9.1
2016-Aug-23 22:34N 47°33' W 003°23'9 8.9
2016-Aug-23 21:34N 47°24' W 003°24'9 8.6
2016-Aug-23 20:34N 47°16' W 003°24'6 6.0
2016-Aug-23 19:33N 47°10' W 003°24'4 4.1
2016-Aug-23 18:34N 47°06' W 003°25'4 4.3
2016-Aug-23 17:34N 47°02' W 003°25'4 3.6
2016-Aug-23 16:33N 46°59' W 003°28'4 4.3
2016-Aug-23 15:33N 47°00' W 003°34'4 4.1
2016-Aug-23 14:33N 47°01' W 003°40'1 0.5
2016-Aug-23 13:33N 47°00' W 003°40'4 4.3
2016-Aug-23 12:33N 47°02' W 003°34'4 4.0
2016-Aug-23 11:33N 46°59' W 003°30'3 2.6
2016-Aug-23 10:34N 47°01' W 003°27'3 3.0
2016-Aug-23 09:34N 47°01' W 003°31'3 3.0
2016-Aug-23 08:34N 47°01' W 003°27'3 2.8
2016-Aug-23 07:34N 46°60' W 003°31'2 2.3
2016-Aug-23 06:33N 47°01' W 003°28'3 3.5
2016-Aug-23 05:33N 46°59' W 003°24'2 2.2
2016-Aug-23 04:33N 47°01' W 003°25'4 4.0
2016-Aug-23 03:34N 47°05' W 003°25'4 3.9
2016-Aug-23 02:34N 47°09' W 003°24'6 5.9
2016-Aug-23 01:34N 47°14' W 003°24'9 8.8
2016-Aug-23 00:33N 47°23' W 003°24'9 9.3
2016-Aug-22 23:33N 47°32' W 003°23'9 9.3
2016-Aug-22 22:34N 47°42' W 003°22'1 0.9
2016-Aug-22 21:34N 47°43' W 003°22'8 8.2
2016-Aug-22 20:34N 47°35' W 003°26'5 4.7
2016-Aug-22 19:34N 47°31' W 003°30'4 4.2
2016-Aug-22 18:33N 47°27' W 003°28'1 1.2
2016-Aug-22 17:33N 47°27' W 003°30'3 2.7
2016-Aug-22 16:33N 47°30' W 003°31'4 4.4
2016-Aug-22 15:34N 47°25' W 003°30'3 3.1
2016-Aug-22 14:33N 47°23' W 003°27'4 3.5
2016-Aug-22 13:33N 47°26' W 003°29'3 3.3
2016-Aug-22 12:33N 47°29' W 003°32'4 4.2
2016-Aug-22 11:33N 47°25' W 003°33'4 3.6
2016-Aug-22 10:34N 47°22' W 003°29'3 3.2
2016-Aug-22 09:33N 47°24' W 003°32'4 3.7
2016-Aug-22 08:34N 47°28' W 003°32'3 3.0
2016-Aug-22 07:34N 47°27' W 003°28'2 1.9
2016-Aug-22 06:33N 47°28' W 003°30'3 2.6
2016-Aug-22 05:34N 47°26' W 003°28'4 4.2
2016-Aug-22 04:33N 47°30' W 003°30'4 4.0
2016-Aug-22 03:34N 47°34' W 003°27'8 8.0
2016-Aug-22 02:34N 47°41' W 003°22'  
2016-Aug-19 18:33N 47°42' W 003°22'8 7.5
2016-Aug-19 17:33N 47°35' W 003°25'7 6.5
2016-Aug-19 16:33N 47°29' W 003°31'4 3.9
2016-Aug-19 15:33N 47°26' W 003°28'3 3.4
2016-Aug-19 14:33N 47°29' W 003°31'3 3.4
2016-Aug-19 13:33N 47°26' W 003°28'3 3.2
2016-Aug-19 12:33N 47°28' W 003°31'3 3.2
2016-Aug-19 11:33N 47°26' W 003°28'2 2.4
2016-Aug-19 10:33N 47°28' W 003°30'1 1.2
2016-Aug-19 09:33N 47°29' W 003°29'3 3.2
2016-Aug-19 08:33N 47°26' W 003°29'3 3.4
2016-Aug-19 07:33N 47°29' W 003°31'4 3.7
2016-Aug-19 06:33N 47°25' W 003°28'4 4.0
2016-Aug-19 05:33N 47°29' W 003°31'2 2.4
2016-Aug-19 04:33N 47°27' W 003°29'3 2.8
2016-Aug-19 03:33N 47°29' W 003°31'3 3.4
2016-Aug-19 02:33N 47°27' W 003°28'2 1.7
2016-Aug-19 01:33N 47°28' W 003°30'4 4.1
2016-Aug-19 00:33N 47°32' W 003°30'9 8.7
2016-Aug-18 23:33N 47°39' W 003°23'5 4.9
2016-Aug-18 22:33N 47°44' W 003°22'5 5.3
2016-Aug-18 21:33N 47°39' W 003°23'8 7.8
2016-Aug-18 20:33N 47°33' W 003°31'4 4.0
2016-Aug-18 19:33N 47°29' W 003°29'3 3.0
2016-Aug-18 18:31N 47°26' W 003°30'3 3.6
2016-Aug-18 17:33N 47°29' W 003°31'4 3.9
2016-Aug-18 16:33N 47°25' W 003°34'0 0.2
2016-Aug-18 15:33N 47°26' W 003°34'4 3.6
2016-Aug-18 14:33N 47°22' W 003°31'3 2.9
2016-Aug-18 13:33N 47°21' W 003°28'2 1.6
2016-Aug-18 12:33N 47°21' W 003°30'2 1.6
2016-Aug-18 11:33N 47°20' W 003°28'1 1.4
2016-Aug-18 10:33N 47°21' W 003°28'2 2.1
2016-Aug-18 09:30N 47°23' W 003°30'2 1.7
2016-Aug-18 08:30N 47°24' W 003°28'2 2.2
2016-Aug-18 07:34N 47°22' W 003°28'2 2.0
2016-Aug-18 06:33N 47°24' W 003°30'2 1.7
2016-Aug-18 05:33N 47°24' W 003°27'2 2.2
2016-Aug-18 04:33N 47°22' W 003°29'3 3.2
2016-Aug-18 03:33N 47°25' W 003°29'4 4.3
2016-Aug-18 02:33N 47°29' W 003°31'2 2.4
2016-Aug-18 01:33N 47°27' W 003°29'1 1.0
2016-Aug-18 00:33N 47°27' W 003°30'3 2.7
2016-Aug-17 23:33N 47°30' W 003°29'4 4.0
2016-Aug-17 22:33N 47°26' W 003°29'4 4.1
2016-Aug-17 21:33N 47°22' W 003°28'5 4.2
2016-Aug-17 20:25N 47°18' W 003°23'1 0.7
2016-Aug-17 19:33N 47°18' W 003°23'2 2.0
2016-Aug-17 18:33N 47°17' W 003°20'0 0.3
2016-Aug-17 17:33N 47°17' W 003°20'1 1.3
2016-Aug-17 16:33N 47°18' W 003°22'6 6.0
2016-Aug-17 15:33N 47°21' W 003°29'4 4.0
2016-Aug-17 14:33N 47°24' W 003°33'1 0.8
2016-Aug-17 13:33N 47°25' W 003°33'3 3.5
2016-Aug-17 12:33N 47°29' W 003°32'6 6.3
2016-Aug-17 11:33N 47°33' W 003°26'9 8.7
2016-Aug-17 10:33N 47°42' W 003°22'2 0.2
2016-Aug-16 23:33N 47°44' W 003°22'8 8.2
2016-Aug-16 22:33N 47°36' W 003°24'9 9.0
2016-Aug-16 21:33N 47°27' W 003°26'9 9.3
2016-Aug-16 20:34N 47°18' W 003°28'4 3.6
2016-Aug-16 19:33N 47°16' W 003°33'4 3.7
2016-Aug-16 18:33N 47°14' W 003°38'  

Dump ship's entire track history